createdAt,value
2023-04-09T00:00:38.893Z,4.62
2023-04-09T00:03:05.153Z,4.56
2023-04-09T00:05:31.156Z,4.56
2023-04-09T00:07:57.076Z,4.51
2023-04-09T00:10:23.016Z,4.46
2023-04-09T00:12:49.036Z,4.47
2023-04-09T00:15:27.773Z,4.48
2023-04-09T00:17:56.416Z,4.46
2023-04-09T00:20:22.401Z,4.44
2023-04-09T00:22:49.180Z,4.48
2023-04-09T00:25:15.258Z,4.49
2023-04-09T00:27:41.167Z,4.39
2023-04-09T00:30:07.851Z,4.31
2023-04-09T00:32:33.744Z,4.30
2023-04-09T00:34:59.684Z,4.26
2023-04-09T00:37:25.741Z,4.35
2023-04-09T00:39:51.693Z,4.29
2023-04-09T00:42:17.649Z,4.35
2023-04-09T00:44:43.681Z,4.23
2023-04-09T00:47:10.098Z,4.20
2023-04-09T00:49:36.163Z,4.20
2023-04-09T00:52:02.227Z,4.19
2023-04-09T00:54:28.206Z,4.21
2023-04-09T00:56:56.150Z,4.35
2023-04-09T00:59:24.144Z,4.25
2023-04-09T01:01:50.177Z,4.14
2023-04-09T01:04:16.670Z,4.10
2023-04-09T01:06:50.864Z,4.08
2023-04-09T01:09:27.860Z,4.06
2023-04-09T01:12:18.357Z,4.05
2023-04-09T01:15:02.566Z,4.09
2023-04-09T01:17:43.723Z,4.13
2023-04-09T01:20:12.979Z,4.18
2023-04-09T01:22:59.442Z,4.24
2023-04-09T01:25:28.162Z,4.11
2023-04-09T01:28:25.296Z,3.96
2023-04-09T01:30:56.987Z,3.88
2023-04-09T01:33:24.892Z,3.78
2023-04-09T01:35:52.782Z,3.78
2023-04-09T01:38:21.189Z,3.79
2023-04-09T01:40:49.073Z,3.64
2023-04-09T01:43:15.323Z,3.78
2023-04-09T01:45:43.638Z,3.74
2023-04-09T01:48:09.971Z,3.68
2023-04-09T01:50:36.719Z,3.54
2023-04-09T01:53:03.488Z,3.64
2023-04-09T01:55:29.472Z,3.60
2023-04-09T01:57:55.475Z,3.36
2023-04-09T02:00:22.495Z,3.18
2023-04-09T02:02:55.402Z,3.15
2023-04-09T02:05:26.453Z,3.12
2023-04-09T02:07:55.613Z,3.34
2023-04-09T02:10:28.589Z,3.31
2023-04-09T02:12:55.802Z,3.42
2023-04-09T02:15:24.102Z,3.48
2023-04-09T02:17:50.080Z,3.58
2023-04-09T02:20:26.197Z,3.38
2023-04-09T02:22:57.339Z,3.53
2023-04-09T02:25:24.559Z,3.49
2023-04-09T02:27:50.471Z,3.40
2023-04-09T02:30:16.339Z,3.59
2023-04-09T02:32:42.314Z,3.66
2023-04-09T02:35:08.368Z,3.74
2023-04-09T02:37:34.261Z,3.76
2023-04-09T02:40:00.155Z,3.90
2023-04-09T02:42:26.084Z,3.74
2023-04-09T02:44:51.993Z,3.83
2023-04-09T02:47:17.984Z,3.91
2023-04-09T02:49:43.918Z,3.95
2023-04-09T02:52:10.710Z,3.96
2023-04-09T02:54:36.691Z,3.90
2023-04-09T02:57:02.623Z,3.80
2023-04-09T02:59:28.621Z,3.80
2023-04-09T03:01:54.557Z,3.70
2023-04-09T03:04:20.579Z,3.80
2023-04-09T03:06:46.529Z,3.86
2023-04-09T03:09:12.421Z,3.85
2023-04-09T03:11:38.351Z,3.88
2023-04-09T03:14:04.290Z,3.98
2023-04-09T03:16:30.231Z,3.90
2023-04-09T03:18:56.174Z,3.83
2023-04-09T03:21:22.126Z,3.86
2023-04-09T03:23:48.089Z,3.79
2023-04-09T03:26:13.966Z,3.79
2023-04-09T03:28:39.974Z,3.62
2023-04-09T03:31:05.926Z,3.60
2023-04-09T03:33:31.904Z,3.56
2023-04-09T03:35:57.896Z,3.55
2023-04-09T03:38:23.949Z,3.67
2023-04-09T03:40:50.001Z,3.68
2023-04-09T03:43:15.920Z,3.58
2023-04-09T03:45:41.887Z,3.64
2023-04-09T03:48:07.790Z,3.69
2023-04-09T03:50:41.108Z,3.49
2023-04-09T03:53:07.336Z,3.53
2023-04-09T03:55:33.585Z,3.43
2023-04-09T03:57:59.598Z,3.51
2023-04-09T04:00:25.653Z,3.52
2023-04-09T04:02:52.020Z,3.62
2023-04-09T04:05:18.308Z,3.56
2023-04-09T04:07:44.556Z,3.60
2023-04-09T04:10:10.762Z,3.62
2023-04-09T04:12:36.690Z,3.62
2023-04-09T04:15:02.865Z,3.67
2023-04-09T04:17:28.887Z,3.63
2023-04-09T04:19:54.927Z,3.74
2023-04-09T04:22:20.799Z,3.77
2023-04-09T04:24:46.760Z,3.67
2023-04-09T04:27:12.637Z,3.51
2023-04-09T04:29:38.552Z,3.65
2023-04-09T04:32:04.802Z,3.64
2023-04-09T04:34:30.814Z,3.72
2023-04-09T04:36:56.708Z,3.76
2023-04-09T04:39:22.626Z,3.69
2023-04-09T04:41:48.538Z,3.72
2023-04-09T04:44:14.412Z,3.70
2023-04-09T04:46:40.316Z,3.68
2023-04-09T04:49:06.194Z,3.67
2023-04-09T04:51:32.099Z,3.67
2023-04-09T04:53:58.018Z,3.51
2023-04-09T04:56:23.978Z,3.35
2023-04-09T04:58:50.206Z,3.32
2023-04-09T05:01:16.469Z,3.29
2023-04-09T05:03:42.547Z,3.33
2023-04-09T05:06:08.567Z,3.16
2023-04-09T05:08:34.627Z,3.18
2023-04-09T05:11:00.544Z,3.32
2023-04-09T05:13:26.489Z,3.42
2023-04-09T05:15:52.487Z,3.42
2023-04-09T05:18:18.438Z,3.57
2023-04-09T05:20:44.434Z,3.50
2023-04-09T05:23:11.867Z,3.55
2023-04-09T05:25:38.793Z,3.53
2023-04-09T05:28:04.931Z,3.53
2023-04-09T05:30:30.934Z,3.53
2023-04-09T05:32:56.895Z,3.39
2023-04-09T05:35:22.796Z,3.45
2023-04-09T05:37:48.726Z,3.57
2023-04-09T05:40:14.978Z,3.61
2023-04-09T05:42:40.981Z,3.71
2023-04-09T05:45:07.644Z,3.74
2023-04-09T05:47:33.513Z,3.81
2023-04-09T05:50:01.589Z,3.80
2023-04-09T05:52:27.776Z,3.87
2023-04-09T05:54:53.673Z,3.95
2023-04-09T05:57:19.593Z,4.03
2023-04-09T05:59:45.507Z,4.11
2023-04-09T06:02:11.535Z,4.19
2023-04-09T06:04:37.684Z,4.14
2023-04-09T06:07:05.906Z,4.14
2023-04-09T06:09:31.826Z,4.20
2023-04-09T06:11:57.871Z,4.37
2023-04-09T06:14:23.975Z,4.38
2023-04-09T06:16:49.899Z,4.34
2023-04-09T06:19:16.132Z,4.38
2023-04-09T06:21:42.073Z,4.43
2023-04-09T06:24:07.996Z,4.48
2023-04-09T06:26:34.014Z,4.57
2023-04-09T06:28:59.910Z,4.61
2023-04-09T06:31:25.925Z,4.67
2023-04-09T06:33:52.239Z,4.77
2023-04-09T06:36:18.356Z,4.88
2023-04-09T06:38:44.265Z,4.96
2023-04-09T06:41:12.031Z,5.04
2023-04-09T06:43:38.472Z,5.18
2023-04-09T06:46:04.627Z,5.20
2023-04-09T06:48:30.682Z,5.13
2023-04-09T06:50:56.682Z,5.14
2023-04-09T06:53:22.741Z,5.17
2023-04-09T06:55:48.780Z,5.26
2023-04-09T06:58:15.756Z,5.35
2023-04-09T07:00:41.809Z,5.43
2023-04-09T07:03:08.578Z,5.48
2023-04-09T07:05:35.331Z,5.56
2023-04-09T07:08:01.348Z,5.56
2023-04-09T07:10:27.267Z,5.66
2023-04-09T07:12:53.207Z,5.69
2023-04-09T07:15:19.232Z,5.80
2023-04-09T07:17:45.294Z,5.86
2023-04-09T07:20:11.523Z,5.93
2023-04-09T07:22:37.548Z,5.97
2023-04-09T07:25:04.023Z,5.98
2023-04-09T07:27:29.964Z,6.10
2023-04-09T07:29:59.472Z,6.17
2023-04-09T07:32:27.274Z,6.13
2023-04-09T07:34:54.527Z,6.10
2023-04-09T07:37:20.911Z,6.21
2023-04-09T07:39:49.189Z,6.25
2023-04-09T07:42:15.445Z,6.29
2023-04-09T07:44:41.384Z,6.35
2023-04-09T07:47:07.877Z,6.32
2023-04-09T07:49:35.775Z,6.39
2023-04-09T07:52:01.742Z,6.44
2023-04-09T07:54:28.002Z,6.52
2023-04-09T07:56:54.132Z,6.65
2023-04-09T07:59:20.148Z,6.63
2023-04-09T08:01:46.226Z,6.69
2023-04-09T08:04:13.244Z,6.64
2023-04-09T08:06:39.690Z,6.68
2023-04-09T08:09:05.722Z,6.79
2023-04-09T08:11:31.776Z,7.00
2023-04-09T08:14:00.688Z,6.99
2023-04-09T08:16:27.342Z,7.01
2023-04-09T08:18:53.856Z,7.10
2023-04-09T08:21:20.066Z,7.16
2023-04-09T08:23:46.031Z,7.29
2023-04-09T08:26:11.930Z,7.23
2023-04-09T08:28:37.828Z,7.30
2023-04-09T08:31:03.997Z,7.41
2023-04-09T08:33:31.189Z,7.28
2023-04-09T08:35:57.266Z,7.26
2023-04-09T08:38:23.211Z,7.30
2023-04-09T08:40:49.217Z,7.42
2023-04-09T08:43:15.941Z,7.67
2023-04-09T08:45:42.685Z,7.78
2023-04-09T08:48:13.654Z,7.72
2023-04-09T08:50:40.100Z,7.86
2023-04-09T08:53:08.984Z,7.91
2023-04-09T08:55:36.560Z,7.97
2023-04-09T08:58:09.939Z,7.92
2023-04-09T09:00:37.243Z,7.88
2023-04-09T09:03:08.151Z,8.06
2023-04-09T09:05:42.529Z,8.23
2023-04-09T09:08:21.871Z,8.33
2023-04-09T09:10:48.022Z,8.34
2023-04-09T09:13:27.304Z,8.31
2023-04-09T09:16:10.467Z,8.49
2023-04-09T09:18:41.480Z,8.70
2023-04-09T09:21:14.995Z,8.51
2023-04-09T09:23:42.044Z,8.25
2023-04-09T09:26:12.935Z,8.28
2023-04-09T09:28:39.053Z,8.53
2023-04-09T09:31:09.319Z,8.71
2023-04-09T09:33:35.774Z,8.59
2023-04-09T09:36:03.345Z,8.59
2023-04-09T09:38:30.068Z,8.88
2023-04-09T09:40:56.044Z,9.14
2023-04-09T09:43:22.438Z,9.06
2023-04-09T09:45:48.904Z,9.31
2023-04-09T09:48:15.194Z,9.44
2023-04-09T09:50:42.386Z,9.38
2023-04-09T09:53:16.826Z,9.38
2023-04-09T09:55:48.671Z,9.50
2023-04-09T09:58:26.416Z,9.80
2023-04-09T10:00:52.597Z,10.01
2023-04-09T10:03:25.267Z,10.30
2023-04-09T10:05:52.778Z,10.31
2023-04-09T10:08:21.041Z,10.34
2023-04-09T10:10:48.662Z,10.62
2023-04-09T10:13:54.140Z,10.73
2023-04-09T10:16:22.486Z,10.47
2023-04-09T10:18:48.576Z,10.49
2023-04-09T10:21:24.224Z,10.21
2023-04-09T10:23:51.389Z,9.88
2023-04-09T10:26:19.244Z,9.76
2023-04-09T10:28:45.166Z,9.83
2023-04-09T10:31:11.285Z,9.95
2023-04-09T10:33:38.025Z,9.82
2023-04-09T10:36:09.196Z,9.94
2023-04-09T10:38:40.597Z,10.01
2023-04-09T10:41:08.931Z,10.16
2023-04-09T10:43:37.805Z,10.26
2023-04-09T10:46:05.786Z,9.91
2023-04-09T10:48:34.426Z,10.14
2023-04-09T10:51:05.927Z,10.16
2023-04-09T10:53:32.065Z,10.18
2023-04-09T10:55:58.056Z,10.52
2023-04-09T10:58:24.067Z,10.54
2023-04-09T11:00:51.086Z,10.49
2023-04-09T11:03:26.764Z,10.02
2023-04-09T11:06:08.545Z,10.06
2023-04-09T11:08:35.840Z,10.11
2023-04-09T11:11:02.865Z,10.12
2023-04-09T11:13:30.567Z,10.61
2023-04-09T11:16:00.734Z,11.07
2023-04-09T11:18:28.529Z,12.09
2023-04-09T11:20:56.764Z,12.05
2023-04-09T11:23:24.382Z,11.38
2023-04-09T11:25:50.940Z,11.01
2023-04-09T11:28:17.974Z,10.76
2023-04-09T11:30:46.118Z,10.68
2023-04-09T11:33:12.697Z,10.74
2023-04-09T11:35:38.796Z,11.09
2023-04-09T11:38:09.104Z,11.27
2023-04-09T11:40:35.726Z,12.05
2023-04-09T11:43:02.554Z,12.32
2023-04-09T11:45:31.129Z,13.30
2023-04-09T11:47:57.632Z,13.82
2023-04-09T11:50:24.294Z,13.43
2023-04-09T11:52:50.319Z,13.27
2023-04-09T11:55:26.775Z,13.11
2023-04-09T11:57:56.768Z,11.87
2023-04-09T12:00:24.209Z,11.50
2023-04-09T12:03:00.657Z,11.45
2023-04-09T12:05:31.797Z,11.85
2023-04-09T12:08:04.515Z,11.54
2023-04-09T12:10:33.156Z,11.20
2023-04-09T12:13:06.200Z,11.38
2023-04-09T12:15:34.142Z,11.52
2023-04-09T12:18:00.856Z,11.02
2023-04-09T12:20:39.001Z,11.04
2023-04-09T12:23:06.140Z,11.95
2023-04-09T12:25:39.040Z,12.67
2023-04-09T12:28:07.184Z,13.45
2023-04-09T12:30:33.812Z,13.66
2023-04-09T12:33:00.386Z,13.06
2023-04-09T12:35:26.601Z,12.62
2023-04-09T12:37:52.968Z,11.87
2023-04-09T12:40:19.728Z,11.58
2023-04-09T12:42:46.056Z,11.58
2023-04-09T12:45:14.823Z,11.81
2023-04-09T12:47:41.056Z,11.91
2023-04-09T12:50:08.849Z,12.33
2023-04-09T12:52:35.103Z,12.46
2023-04-09T12:55:07.653Z,12.11
2023-04-09T12:57:34.051Z,12.13
2023-04-09T13:00:01.629Z,12.03
2023-04-09T13:02:29.340Z,11.93
2023-04-09T13:04:55.343Z,11.96
2023-04-09T13:07:22.153Z,11.98
2023-04-09T13:09:49.708Z,11.78
2023-04-09T13:12:16.893Z,11.86
2023-04-09T13:14:44.447Z,12.01
2023-04-09T13:17:10.531Z,12.03
2023-04-09T13:19:36.548Z,12.73
2023-04-09T13:22:02.834Z,13.39
2023-04-09T13:24:28.855Z,12.77
2023-04-09T13:26:54.836Z,12.31
2023-04-09T13:29:21.352Z,12.80
2023-04-09T13:31:47.300Z,12.27
2023-04-09T13:34:13.151Z,12.17
2023-04-09T13:36:39.184Z,12.04
2023-04-09T13:39:05.300Z,12.04
2023-04-09T13:41:34.306Z,12.28
2023-04-09T13:44:00.938Z,12.42
2023-04-09T13:46:27.462Z,12.75
2023-04-09T13:48:56.540Z,12.32
2023-04-09T13:51:23.040Z,12.14
2023-04-09T13:53:50.290Z,12.19
2023-04-09T13:56:16.194Z,11.98
2023-04-09T13:58:43.186Z,12.19
2023-04-09T14:01:10.650Z,12.09
2023-04-09T14:03:40.049Z,12.24
2023-04-09T14:06:10.247Z,12.18
2023-04-09T14:08:36.523Z,12.01
2023-04-09T14:11:03.045Z,11.86
2023-04-09T14:13:29.140Z,11.92
2023-04-09T14:15:55.578Z,11.87
2023-04-09T14:18:21.738Z,11.73
2023-04-09T14:20:47.742Z,11.80
2023-04-09T14:23:13.774Z,11.75
2023-04-09T14:25:39.757Z,11.65
2023-04-09T14:28:05.952Z,11.31
2023-04-09T14:30:32.175Z,11.18
2023-04-09T14:32:58.378Z,11.07
2023-04-09T14:35:24.910Z,11.08
2023-04-09T14:37:50.888Z,11.69
2023-04-09T14:40:16.883Z,12.11
2023-04-09T14:42:42.941Z,11.53
2023-04-09T14:45:09.484Z,11.19
2023-04-09T14:47:35.595Z,11.27
2023-04-09T14:50:01.960Z,11.02
2023-04-09T14:52:29.847Z,10.81
2023-04-09T14:54:56.607Z,10.85
2023-04-09T14:57:22.576Z,11.23
2023-04-09T14:59:48.513Z,11.51
2023-04-09T15:02:14.997Z,11.80
2023-04-09T15:04:41.131Z,12.24
2023-04-09T15:07:07.701Z,12.61
2023-04-09T15:09:33.747Z,12.11
2023-04-09T15:12:00.947Z,12.31
2023-04-09T15:14:30.956Z,12.50
2023-04-09T15:16:57.047Z,12.20
2023-04-09T15:19:23.500Z,11.57
2023-04-09T15:21:49.545Z,12.07
2023-04-09T15:24:15.659Z,12.62
2023-04-09T15:26:41.754Z,12.92
2023-04-09T15:29:08.054Z,12.69
2023-04-09T15:31:34.251Z,12.65
2023-04-09T15:34:00.516Z,12.63
2023-04-09T15:36:28.696Z,12.16
2023-04-09T15:38:55.450Z,12.07
2023-04-09T15:41:23.383Z,12.31
2023-04-09T15:43:51.031Z,12.18
2023-04-09T15:46:17.710Z,11.90
2023-04-09T15:48:44.923Z,11.77
2023-04-09T15:51:11.488Z,11.70
2023-04-09T15:53:37.498Z,11.68
2023-04-09T15:56:04.811Z,11.27
2023-04-09T15:58:31.477Z,11.21
2023-04-09T16:00:57.735Z,11.26
2023-04-09T16:03:24.273Z,11.14
2023-04-09T16:05:50.516Z,10.99
2023-04-09T16:08:16.677Z,10.75
2023-04-09T16:10:42.648Z,10.77
2023-04-09T16:13:08.752Z,10.61
2023-04-09T16:15:35.371Z,10.54
2023-04-09T16:18:01.828Z,10.48
2023-04-09T16:20:28.833Z,10.53
2023-04-09T16:22:55.089Z,10.55
2023-04-09T16:25:21.171Z,10.69
2023-04-09T16:27:47.085Z,10.55
2023-04-09T16:30:13.108Z,10.56
2023-04-09T16:32:39.026Z,10.51
2023-04-09T16:35:05.760Z,10.34
2023-04-09T16:37:31.812Z,10.54
2023-04-09T16:39:58.268Z,10.55
2023-04-09T16:42:26.140Z,10.53
2023-04-09T16:44:52.404Z,10.38
2023-04-09T16:47:18.353Z,10.05
2023-04-09T16:49:44.260Z,9.99
2023-04-09T16:52:10.443Z,9.91
2023-04-09T16:54:36.445Z,9.88
2023-04-09T16:57:02.466Z,9.86
2023-04-09T16:59:31.772Z,9.73
2023-04-09T17:01:57.747Z,9.79
2023-04-09T17:04:23.760Z,10.01
2023-04-09T17:06:49.777Z,10.00
2023-04-09T17:09:15.818Z,10.10
2023-04-09T17:11:41.822Z,9.94
2023-04-09T17:14:07.791Z,9.93
2023-04-09T17:16:33.806Z,9.85
2023-04-09T17:19:00.108Z,9.84
2023-04-09T17:21:26.702Z,9.78
2023-04-09T17:23:52.722Z,9.90
2023-04-09T17:26:19.955Z,9.89
2023-04-09T17:28:46.325Z,9.84
2023-04-09T17:31:13.926Z,9.79
2023-04-09T17:33:43.442Z,9.62
2023-04-09T17:36:09.980Z,9.67
2023-04-09T17:38:36.014Z,9.73
2023-04-09T17:41:02.130Z,9.65
2023-04-09T17:43:28.043Z,9.67
2023-04-09T17:45:53.956Z,9.65
2023-04-09T17:48:20.015Z,9.49
2023-04-09T17:50:46.049Z,9.42
2023-04-09T17:53:12.053Z,9.40
2023-04-09T17:55:38.184Z,9.34
2023-04-09T17:58:04.303Z,9.24
2023-04-09T18:00:31.111Z,9.08
2023-04-09T18:02:57.503Z,8.99
2023-04-09T18:05:25.244Z,9.00
2023-04-09T18:07:51.761Z,8.97
2023-04-09T18:10:19.254Z,8.93
2023-04-09T18:12:45.294Z,8.82
2023-04-09T18:15:11.276Z,8.83
2023-04-09T18:17:37.260Z,8.81
2023-04-09T18:20:03.488Z,8.73
2023-04-09T18:22:30.065Z,8.76
2023-04-09T18:24:56.030Z,8.61
2023-04-09T18:27:22.121Z,8.51
2023-04-09T18:29:51.140Z,8.47
2023-04-09T18:32:18.850Z,8.44
2023-04-09T18:34:46.387Z,8.36
2023-04-09T18:37:12.588Z,8.38
2023-04-09T18:39:38.604Z,8.26
2023-04-09T18:42:04.598Z,8.27
2023-04-09T18:44:33.109Z,8.20
2023-04-09T18:47:01.338Z,8.26
2023-04-09T18:49:27.478Z,8.23
2023-04-09T18:51:54.007Z,8.19
2023-04-09T18:54:20.282Z,8.02
2023-04-09T18:56:46.699Z,8.07
2023-04-09T18:59:12.663Z,8.14
2023-04-09T19:01:38.755Z,8.01
2023-04-09T19:04:04.974Z,8.00
2023-04-09T19:06:32.765Z,7.98
2023-04-09T19:08:58.705Z,7.91
2023-04-09T19:11:25.423Z,7.88
2023-04-09T19:13:51.879Z,7.76
2023-04-09T19:16:19.140Z,7.69
2023-04-09T19:18:45.060Z,7.67
2023-04-09T19:21:10.995Z,7.69
2023-04-09T19:23:37.076Z,7.72
2023-04-09T19:26:03.358Z,7.64
2023-04-09T19:28:29.424Z,7.60
2023-04-09T19:30:55.832Z,7.59
2023-04-09T19:33:23.910Z,7.54
2023-04-09T19:35:51.066Z,7.60
2023-04-09T19:38:18.158Z,7.56
2023-04-09T19:40:45.460Z,7.65
2023-04-09T19:43:11.754Z,7.56
2023-04-09T19:45:38.282Z,7.59
2023-04-09T19:48:05.434Z,7.45
2023-04-09T19:50:40.564Z,7.49
2023-04-09T19:53:06.588Z,7.52
2023-04-09T19:55:33.326Z,7.59
2023-04-09T19:57:59.402Z,7.55
2023-04-09T20:00:25.928Z,7.52
2023-04-09T20:02:52.835Z,7.53
2023-04-09T20:05:20.373Z,7.52
2023-04-09T20:07:51.309Z,7.40
2023-04-09T20:10:17.532Z,7.45
2023-04-09T20:12:47.651Z,7.40
2023-04-09T20:15:14.666Z,7.42
2023-04-09T20:17:43.781Z,7.38
2023-04-09T20:20:11.105Z,7.40
2023-04-09T20:22:42.316Z,7.29
2023-04-09T20:25:10.782Z,7.18
2023-04-09T20:27:37.436Z,7.27
2023-04-09T20:30:04.375Z,7.29
2023-04-09T20:32:30.383Z,7.26
2023-04-09T20:34:56.434Z,7.23
2023-04-09T20:37:22.430Z,7.25
2023-04-09T20:39:48.400Z,7.26
2023-04-09T20:42:14.850Z,7.13
2023-04-09T20:44:41.007Z,7.07
2023-04-09T20:47:07.324Z,7.01
2023-04-09T20:49:33.501Z,7.00
2023-04-09T20:51:59.999Z,6.95
2023-04-09T20:54:27.238Z,6.94
2023-04-09T20:56:53.872Z,6.91
2023-04-09T20:59:19.961Z,6.90
2023-04-09T21:01:46.131Z,6.90
2023-04-09T21:04:13.271Z,6.86
2023-04-09T21:06:39.851Z,6.77
2023-04-09T21:09:05.869Z,6.61
2023-04-09T21:11:31.916Z,6.68
2023-04-09T21:13:58.269Z,6.67
2023-04-09T21:16:26.479Z,6.62
2023-04-09T21:18:53.002Z,6.59
2023-04-09T21:21:19.241Z,6.55
2023-04-09T21:23:45.350Z,6.47
2023-04-09T21:26:11.291Z,6.42
2023-04-09T21:28:46.616Z,6.45
2023-04-09T21:31:12.596Z,6.35
2023-04-09T21:33:38.513Z,6.42
2023-04-09T21:36:06.470Z,6.44
2023-04-09T21:38:32.516Z,6.38
2023-04-09T21:40:59.141Z,6.44
2023-04-09T21:43:28.512Z,6.42
2023-04-09T21:45:58.066Z,6.36
2023-04-09T21:48:25.031Z,6.37
2023-04-09T21:50:51.134Z,6.36
2023-04-09T21:53:17.616Z,6.35
2023-04-09T21:55:43.639Z,6.33
2023-04-09T21:58:11.202Z,6.39
2023-04-09T22:00:37.654Z,6.31
2023-04-09T22:03:04.377Z,6.30
2023-04-09T22:05:33.723Z,6.24
2023-04-09T22:07:59.990Z,6.23
2023-04-09T22:10:27.122Z,6.29
2023-04-09T22:12:53.736Z,6.34
2023-04-09T22:15:20.695Z,6.38
2023-04-09T22:17:47.093Z,6.22
2023-04-09T22:20:13.466Z,6.20
2023-04-09T22:22:41.369Z,6.24
2023-04-09T22:25:07.762Z,6.20
2023-04-09T22:27:33.928Z,6.16
2023-04-09T22:30:01.771Z,6.32
2023-04-09T22:32:28.136Z,6.29
2023-04-09T22:34:54.151Z,6.23
2023-04-09T22:37:20.302Z,6.07
2023-04-09T22:39:46.487Z,6.03
2023-04-09T22:42:12.832Z,5.95
2023-04-09T22:44:39.114Z,5.89
2023-04-09T22:47:05.567Z,5.75
2023-04-09T22:49:31.957Z,5.84
2023-04-09T22:51:57.836Z,6.01
2023-04-09T22:54:24.475Z,6.05
2023-04-09T22:56:50.861Z,6.09
2023-04-09T22:59:17.450Z,6.19
2023-04-09T23:01:43.543Z,6.11
2023-04-09T23:04:09.766Z,6.15
2023-04-09T23:06:35.766Z,6.15
2023-04-09T23:09:02.208Z,6.13
2023-04-09T23:11:28.489Z,6.13
2023-04-09T23:13:54.394Z,6.04
2023-04-09T23:16:21.274Z,6.11
2023-04-09T23:18:47.225Z,6.11
2023-04-09T23:21:13.154Z,6.16
2023-04-09T23:23:39.293Z,6.14
2023-04-09T23:26:06.560Z,6.23
2023-04-09T23:28:32.804Z,6.22
2023-04-09T23:30:58.721Z,6.23
2023-04-09T23:33:25.601Z,6.30
2023-04-09T23:35:51.673Z,6.27
2023-04-09T23:38:17.628Z,6.21
2023-04-09T23:40:43.609Z,6.25
2023-04-09T23:43:09.656Z,6.29
2023-04-09T23:45:36.190Z,6.23
2023-04-09T23:48:03.328Z,6.30
2023-04-09T23:50:29.715Z,6.37
2023-04-09T23:53:00.336Z,6.38
2023-04-09T23:55:26.579Z,6.35
2023-04-09T23:57:52.490Z,6.43
